Time;durP1;ratioP1;P1;durP2;ratioP2;P2;SDS_P1;SDS_P2;PMS_P1;PMS_P2;Temp;Humidity;BMP_temperature;BMP_pressure;BME280_temperature;BME280_humidity;BME280_pressure;Samples;Min_cycle;Max_cycle;Signal;HPM_P1;HPM_P2
2022/07/19 00:02:06;;;;;;;10.68;6.25;;;25.80;70.20;;;;;;5103947;28;20024;-66
2022/07/19 00:04:41;;;;;;;10.05;6.13;;;25.80;70.20;;;;;;5099147;28;20038;-66
2022/07/19 00:07:07;;;;;;;11.20;5.78;;;25.80;70.30;;;;;;5113543;28;20447;-66
2022/07/19 00:09:32;;;;;;;10.65;5.93;;;25.70;70.30;;;;;;5104492;28;20035;-66
2022/07/19 00:11:58;;;;;;;10.75;6.20;;;25.80;70.40;;;;;;5093040;28;20032;-66
2022/07/19 00:14:24;;;;;;;11.77;6.47;;;25.70;70.30;;;;;;5097275;28;20027;-66
2022/07/19 00:16:49;;;;;;;10.15;6.00;;;25.70;70.40;;;;;;5112283;28;20176;-66
2022/07/19 00:19:15;;;;;;;8.52;5.43;;;25.70;70.40;;;;;;5098939;28;20020;-66
2022/07/19 00:21:43;;;;;;;12.32;6.18;;;25.60;70.30;;;;;;5110538;28;20051;-66
2022/07/19 00:24:09;;;;;;;8.60;5.50;;;25.60;70.40;;;;;;5109636;28;20073;-66
2022/07/19 00:26:34;;;;;;;12.80;5.82;;;25.60;70.40;;;;;;5102184;28;20097;-66
2022/07/19 00:29:01;;;;;;;8.13;5.38;;;25.60;70.50;;;;;;5097509;28;20019;-66
2022/07/19 00:31:27;;;;;;;9.00;4.95;;;25.50;70.40;;;;;;5112473;28;20479;-66
2022/07/19 00:33:53;;;;;;;9.13;5.22;;;25.50;70.50;;;;;;5102322;28;20028;-66
2022/07/19 00:36:20;;;;;;;10.68;5.30;;;25.50;70.50;;;;;;5102003;28;20039;-66
2022/07/19 00:38:46;;;;;;;10.30;4.72;;;25.40;70.10;;;;;;5098085;28;20023;-66
2022/07/19 00:41:12;;;;;;;10.57;5.00;;;25.40;70.00;;;;;;5109777;28;20092;-66
2022/07/19 00:43:42;;;;;;;10.90;4.88;;;25.30;69.80;;;;;;5102256;28;20021;-66
2022/07/19 00:46:19;;;;;;;7.10;4.50;;;25.30;69.90;;;;;;5097814;28;20044;-66
2022/07/19 00:48:46;;;;;;;9.00;4.30;;;25.30;69.50;;;;;;5092131;28;20095;-66
2022/07/19 00:51:19;;;;;;;7.60;4.60;;;25.20;69.00;;;;;;5090229;28;20020;-66
2022/07/19 00:53:45;;;;;;;8.40;4.18;;;25.20;68.80;;;;;;5092682;28;20024;-66
2022/07/19 00:56:12;;;;;;;9.75;5.18;;;25.20;68.70;;;;;;5090585;28;20052;-66
2022/07/19 00:58:39;;;;;;;9.85;4.32;;;25.10;68.80;;;;;;5092832;28;20110;-66
2022/07/19 01:01:07;;;;;;;10.00;4.50;;;25.00;69.00;;;;;;5094936;28;20410;-66
2022/07/19 01:03:36;;;;;;;15.60;4.85;;;25.10;69.20;;;;;;5091267;28;20115;-66
2022/07/19 01:06:03;;;;;;;11.65;4.80;;;25.00;69.20;;;;;;5092671;28;20098;-66
2022/07/19 01:08:29;;;;;;;10.93;4.38;;;25.00;69.40;;;;;;5104409;28;20028;-66
2022/07/19 01:10:54;;;;;;;8.75;4.53;;;24.90;69.50;;;;;;5100003;28;20036;-66
2022/07/19 01:13:20;;;;;;;10.90;5.07;;;24.90;69.60;;;;;;5096215;28;20510;-66
2022/07/19 01:15:46;;;;;;;10.68;5.05;;;24.90;69.70;;;;;;5104984;28;20032;-66
2022/07/19 01:18:12;;;;;;;11.73;4.53;;;24.80;69.80;;;;;;5091646;28;20039;-66
2022/07/19 01:20:41;;;;;;;11.35;4.80;;;24.80;70.50;;;;;;5105134;28;20032;-66
2022/07/19 01:23:07;;;;;;;13.75;6.75;;;24.80;69.90;;;;;;5104339;28;20066;-66
2022/07/19 01:25:35;;;;;;;12.88;5.65;;;24.70;69.90;;;;;;5106340;28;20039;-66
2022/07/19 01:28:02;;;;;;;13.75;5.30;;;24.70;70.10;;;;;;5107139;28;20023;-66
2022/07/19 01:30:34;;;;;;;15.15;5.28;;;24.60;70.30;;;;;;5097593;28;20046;-66
2022/07/19 01:33:01;;;;;;;14.73;4.95;;;24.60;70.40;;;;;;5095875;28;20020;-66
2022/07/19 01:35:28;;;;;;;8.70;4.95;;;24.60;70.50;;;;;;5107456;28;20085;-66
2022/07/19 01:37:55;;;;;;;9.98;5.10;;;24.60;70.70;;;;;;5109356;28;20028;-66
2022/07/19 01:40:21;;;;;;;8.98;4.60;;;24.50;70.70;;;;;;5094739;28;20032;-66
2022/07/19 01:42:48;;;;;;;10.75;4.25;;;24.40;70.80;;;;;;5104360;28;20027;-66
2022/07/19 01:45:18;;;;;;;9.27;5.15;;;24.40;71.00;;;;;;5100170;28;20055;-66
2022/07/19 01:47:45;;;;;;;11.77;4.80;;;24.40;71.30;;;;;;5096496;28;20048;-66
2022/07/19 01:50:13;;;;;;;12.43;4.60;;;24.40;71.30;;;;;;5098845;28;20015;-66
2022/07/19 01:52:39;;;;;;;14.23;4.65;;;24.30;71.20;;;;;;5116160;28;20072;-66
2022/07/19 01:55:06;;;;;;;11.98;5.25;;;24.30;71.10;;;;;;5109092;28;20352;-66
2022/07/19 01:57:32;;;;;;;11.68;5.25;;;24.30;71.20;;;;;;5108121;28;20498;-66
2022/07/19 02:00:00;;;;;;;11.07;4.72;;;24.30;71.30;;;;;;5106915;28;20034;-66
2022/07/19 02:02:26;;;;;;;10.13;4.90;;;24.20;71.40;;;;;;5104072;28;20031;-66
2022/07/19 02:04:52;;;;;;;14.68;5.70;;;24.20;71.60;;;;;;5099719;28;20110;-66
2022/07/19 02:07:17;;;;;;;10.40;4.93;;;24.10;71.50;;;;;;5103385;28;20406;-66
2022/07/19 02:09:43;;;;;;;8.73;5.80;;;24.10;71.60;;;;;;5098209;28;20024;-66
2022/07/19 02:12:09;;;;;;;8.45;4.88;;;24.10;71.80;;;;;;5095740;28;20388;-66
2022/07/19 02:14:37;;;;;;;12.68;5.90;;;24.00;71.80;;;;;;5107660;28;20032;-66
2022/07/19 02:17:03;;;;;;;13.82;6.32;;;24.00;72.10;;;;;;5103943;28;20047;-66
2022/07/19 02:19:29;;;;;;;20.33;5.45;;;24.00;72.10;;;;;;5101746;28;20059;-66
2022/07/19 02:21:54;;;;;;;13.77;5.18;;;24.00;72.10;;;;;;5106015;28;20038;-66
2022/07/19 02:24:20;;;;;;;14.15;5.63;;;23.90;72.00;;;;;;5097487;28;20042;-66
2022/07/19 02:26:46;;;;;;;11.52;4.60;;;23.90;72.10;;;;;;5105562;28;20055;-67
2022/07/19 02:29:11;;;;;;;14.40;5.63;;;23.90;72.00;;;;;;5109876;28;20076;-66
2022/07/19 02:31:37;;;;;;;12.77;5.38;;;23.90;72.10;;;;;;5105146;28;20028;-67
2022/07/19 02:34:03;;;;;;;11.93;5.85;;;23.80;71.90;;;;;;5097432;28;20099;-67
2022/07/19 02:36:29;;;;;;;11.93;5.38;;;23.80;72.30;;;;;;5114380;28;20032;-67
2022/07/19 02:38:55;;;;;;;11.10;5.82;;;23.80;72.50;;;;;;5100262;28;20024;-67
2022/07/19 02:41:21;;;;;;;9.88;5.70;;;23.80;72.60;;;;;;5104425;28;20036;-67
2022/07/19 02:43:47;;;;;;;10.85;5.63;;;23.80;72.80;;;;;;5097135;28;20035;-67
2022/07/19 02:46:12;;;;;;;11.55;5.25;;;23.70;72.90;;;;;;5107958;28;20078;-66
2022/07/19 02:48:38;;;;;;;14.38;5.85;;;23.70;72.70;;;;;;5094875;28;20027;-67
2022/07/19 02:51:04;;;;;;;17.67;5.80;;;23.70;72.70;;;;;;5094721;28;20032;-67
2022/07/19 02:53:30;;;;;;;20.13;6.18;;;23.70;72.60;;;;;;5100791;28;20036;-67
2022/07/19 02:55:55;;;;;;;33.50;6.60;;;23.70;72.70;;;;;;5094718;28;20024;-66
2022/07/19 02:58:21;;;;;;;20.02;6.38;;;23.70;72.70;;;;;;5097907;28;20054;-67
2022/07/19 03:00:47;;;;;;;30.92;6.63;;;23.60;73.30;;;;;;5097649;28;20020;-67
2022/07/19 03:05:58;;;;;;;23.85;6.40;;;23.60;72.80;;;;;;5093721;28;20380;-67
2022/07/19 03:08:23;;;;;;;18.35;5.72;;;23.60;72.90;;;;;;5099151;28;20035;-67
2022/07/19 03:10:49;;;;;;;10.98;6.38;;;23.50;73.00;;;;;;5095587;28;20031;-67
2022/07/19 03:13:15;;;;;;;12.48;6.03;;;23.50;73.20;;;;;;5096300;28;20032;-67
2022/07/19 03:15:41;;;;;;;13.00;6.68;;;23.50;73.40;;;;;;5098584;28;20035;-67
2022/07/19 03:18:06;;;;;;;12.07;6.28;;;23.50;73.50;;;;;;5093308;28;20055;-67
2022/07/19 03:20:32;;;;;;;15.05;6.55;;;23.40;73.50;;;;;;5099095;28;20119;-67
2022/07/19 03:22:58;;;;;;;11.70;6.18;;;23.40;73.70;;;;;;5095834;28;20077;-67
2022/07/19 03:25:24;;;;;;;21.30;6.72;;;23.40;73.70;;;;;;5093514;28;20054;-67
2022/07/19 03:27:55;;;;;;;22.42;7.35;;;23.40;73.60;;;;;;5095459;28;20495;-66
2022/07/19 03:30:21;;;;;;;15.95;6.15;;;23.40;73.40;;;;;;5092718;28;20073;-67
2022/07/19 03:32:47;;;;;;;21.67;6.60;;;23.30;73.30;;;;;;5100933;28;20035;-66
2022/07/19 03:35:13;;;;;;;21.08;7.20;;;23.30;73.40;;;;;;5095480;28;20766;-66
2022/07/19 03:37:39;;;;;;;13.10;6.10;;;23.30;73.70;;;;;;5094610;28;20031;-68
2022/07/19 03:40:05;;;;;;;22.10;6.15;;;23.30;73.80;;;;;;5094284;28;20034;-67
2022/07/19 03:42:31;;;;;;;16.40;6.75;;;23.20;73.90;;;;;;5095109;28;20031;-67
2022/07/19 03:44:57;;;;;;;15.93;6.28;;;23.20;74.00;;;;;;5092617;28;20048;-67
2022/07/19 03:47:22;;;;;;;18.90;6.53;;;23.20;74.00;;;;;;5092077;28;20085;-68
2022/07/19 03:49:48;;;;;;;16.13;7.10;;;23.10;74.20;;;;;;5095631;28;20029;-67
2022/07/19 03:52:14;;;;;;;17.33;6.00;;;23.10;74.30;;;;;;5095149;28;20432;-67
2022/07/19 03:54:40;;;;;;;19.20;6.22;;;23.10;74.30;;;;;;5100228;28;20039;-68
2022/07/19 03:57:05;;;;;;;17.33;6.25;;;23.10;74.40;;;;;;5093566;28;20129;-68
2022/07/19 03:59:31;;;;;;;16.05;6.43;;;23.10;74.40;;;;;;5107899;28;20039;-68
2022/07/19 04:01:57;;;;;;;20.58;6.50;;;23.00;74.50;;;;;;5104334;28;20374;-68
2022/07/19 04:04:22;;;;;;;19.98;7.07;;;23.00;74.60;;;;;;5097515;28;20436;-68
2022/07/19 04:06:51;;;;;;;22.65;6.25;;;23.00;74.70;;;;;;5110131;28;20036;-68
2022/07/19 04:09:18;;;;;;;30.40;7.28;;;23.00;74.80;;;;;;5111118;28;20032;-68
2022/07/19 04:11:43;;;;;;;14.00;6.20;;;22.90;74.70;;;;;;5100610;28;20471;-68
2022/07/19 04:14:09;;;;;;;18.20;5.55;;;22.90;74.50;;;;;;5112709;28;20062;-68
2022/07/19 04:16:35;;;;;;;20.65;6.82;;;22.90;74.40;;;;;;5093540;28;20115;-68
2022/07/19 04:19:00;;;;;;;21.35;5.47;;;22.90;74.60;;;;;;5105595;28;20034;-68
2022/07/19 04:21:26;;;;;;;17.77;5.68;;;22.80;74.60;;;;;;5106007;28;20514;-68
2022/07/19 04:23:52;;;;;;;16.15;5.00;;;22.90;74.60;;;;;;5105292;28;20035;-68
2022/07/19 04:26:17;;;;;;;16.42;6.05;;;22.90;74.70;;;;;;5092126;28;20032;-68
2022/07/19 04:28:44;;;;;;;15.20;5.57;;;22.80;74.70;;;;;;5092805;28;20484;-68
2022/07/19 04:31:09;;;;;;;17.42;6.05;;;22.80;74.80;;;;;;5111898;28;20501;-67
2022/07/19 04:33:35;;;;;;;15.02;5.68;;;22.70;75.00;;;;;;5099872;28;20056;-68
2022/07/19 04:36:01;;;;;;;19.05;5.90;;;22.80;75.20;;;;;;5098150;28;20027;-67
2022/07/19 04:38:27;;;;;;;17.98;5.43;;;22.80;75.50;;;;;;5100406;28;20036;-68
2022/07/19 04:40:52;;;;;;;14.02;6.05;;;22.70;75.50;;;;;;5105488;28;20043;-67
2022/07/19 04:43:21;;;;;;;16.38;6.97;;;22.70;75.70;;;;;;5092360;28;20036;-68
2022/07/19 04:45:46;;;;;;;13.00;6.90;;;22.70;75.90;;;;;;5105315;28;20051;-68
2022/07/19 04:48:13;;;;;;;17.08;6.53;;;22.70;76.20;;;;;;5105586;28;20035;-68
2022/07/19 04:50:40;;;;;;;14.23;6.25;;;22.70;76.50;;;;;;5106090;28;20031;-67
2022/07/19 04:53:06;;;;;;;14.15;7.07;;;22.70;76.70;;;;;;5092743;28;20055;-67
2022/07/19 04:55:33;;;;;;;11.48;6.72;;;22.70;76.90;;;;;;5110466;28;20122;-68
2022/07/19 04:57:59;;;;;;;19.00;6.70;;;22.70;77.10;;;;;;5108226;28;20111;-68
2022/07/19 05:00:25;;;;;;;12.88;6.45;;;22.70;77.40;;;;;;5109630;28;20209;-68
2022/07/19 05:02:54;;;;;;;15.48;6.80;;;22.70;77.50;;;;;;5097599;28;20035;-68
2022/07/19 05:05:20;;;;;;;11.38;6.82;;;22.70;77.70;;;;;;5092968;28;20079;-68
2022/07/19 05:07:46;;;;;;;13.75;7.13;;;22.70;78.00;;;;;;5093106;28;20484;-68
2022/07/19 05:10:12;;;;;;;14.75;6.85;;;22.80;78.20;;;;;;5097242;28;20030;-68
2022/07/19 05:12:40;;;;;;;13.88;6.82;;;22.80;78.40;;;;;;5099998;28;20404;-68
2022/07/19 05:15:08;;;;;;;14.15;6.72;;;22.80;78.40;;;;;;5098066;28;20028;-68
2022/07/19 05:17:34;;;;;;;17.33;6.95;;;22.80;78.10;;;;;;5098101;28;20032;-68
2022/07/19 05:19:59;;;;;;;19.00;7.53;;;22.80;78.20;;;;;;5103665;28;20054;-68
2022/07/19 05:22:25;;;;;;;20.95;7.38;;;22.80;78.10;;;;;;5091863;28;20032;-68
2022/07/19 05:24:55;;;;;;;13.65;6.28;;;22.90;78.20;;;;;;5091993;28;20032;-68
2022/07/19 05:27:24;;;;;;;15.55;7.57;;;22.90;78.50;;;;;;5091910;28;20488;-68
2022/07/19 05:29:50;;;;;;;16.13;6.78;;;22.90;78.60;;;;;;5104196;28;20032;-68
2022/07/19 05:32:16;;;;;;;23.48;7.50;;;22.90;78.60;;;;;;5092848;28;20036;-68
2022/07/19 05:34:42;;;;;;;17.90;6.60;;;23.00;78.60;;;;;;5103860;28;20028;-68
2022/07/19 05:37:11;;;;;;;13.48;6.85;;;23.00;78.60;;;;;;5104998;28;20039;-68
2022/07/19 05:39:39;;;;;;;13.65;7.03;;;23.00;78.60;;;;;;5091799;28;20032;-68
2022/07/19 05:42:05;;;;;;;19.55;7.15;;;23.00;78.50;;;;;;5107607;28;20044;-68
2022/07/19 05:44:31;;;;;;;17.17;6.72;;;23.10;78.40;;;;;;5102543;28;20062;-68
2022/07/19 05:46:56;;;;;;;15.55;6.47;;;23.10;78.20;;;;;;5103941;28;20081;-68
2022/07/19 05:49:22;;;;;;;17.30;6.63;;;23.10;78.00;;;;;;5102367;28;20028;-68
2022/07/19 05:51:48;;;;;;;21.83;7.53;;;23.10;78.00;;;;;;5111489;28;20127;-68
2022/07/19 05:54:14;;;;;;;18.15;6.82;;;23.20;77.90;;;;;;5101196;28;20039;-68
2022/07/19 05:56:40;;;;;;;13.77;6.38;;;23.10;77.70;;;;;;5094378;28;20169;-68
2022/07/19 05:59:05;;;;;;;16.30;7.05;;;23.20;77.80;;;;;;5104126;28;20020;-68
2022/07/19 06:01:51;;;;;;;16.52;6.97;;;23.20;77.90;;;;;;5108692;28;20034;-68
2022/07/19 06:04:17;;;;;;;15.77;5.43;;;23.20;77.70;;;;;;5090884;28;20501;-70
2022/07/19 06:06:43;;;;;;;12.30;5.25;;;23.30;78.00;;;;;;5103875;28;20056;-69
2022/07/19 06:09:11;;;;;;;17.73;5.97;;;23.20;78.10;;;;;;5102213;28;20028;-69
2022/07/19 06:11:40;;;;;;;11.85;5.30;;;23.30;78.40;;;;;;5110449;28;20097;-69
2022/07/19 06:14:08;;;;;;;10.88;6.15;;;23.30;78.60;;;;;;5093739;28;20531;-69
2022/07/19 06:16:40;;;;;;;11.38;6.28;;;23.30;78.80;;;;;;5097244;28;20383;-69
2022/07/19 06:19:06;;;;;;;11.25;5.53;;;23.40;79.30;;;;;;5094474;28;20099;-69
2022/07/19 06:21:33;;;;;;;16.95;6.25;;;23.40;78.90;;;;;;5093480;28;20112;-69
2022/07/19 06:23:59;;;;;;;15.00;5.22;;;23.50;79.00;;;;;;5095410;28;20020;-69
2022/07/19 06:26:26;;;;;;;14.45;6.30;;;23.50;79.00;;;;;;5094094;28;20118;-69
2022/07/19 06:28:52;;;;;;;16.42;6.38;;;23.60;78.90;;;;;;5094379;28;20028;-69
2022/07/19 06:31:18;;;;;;;13.68;6.65;;;23.60;78.80;;;;;;5093880;28;20038;-70
2022/07/19 06:33:46;;;;;;;13.82;6.47;;;23.60;78.80;;;;;;5094247;28;20115;-71
2022/07/19 06:36:12;;;;;;;13.20;5.90;;;23.70;78.90;;;;;;5093456;28;20511;-70
2022/07/19 06:38:39;;;;;;;13.43;5.80;;;23.70;79.20;;;;;;5095507;28;20034;-70
2022/07/19 06:41:05;;;;;;;13.60;6.35;;;23.70;79.00;;;;;;5099987;28;20019;-70
2022/07/19 06:43:31;;;;;;;16.48;6.68;;;23.80;79.20;;;;;;5096283;28;20028;-70
2022/07/19 06:45:57;;;;;;;16.23;6.68;;;23.90;79.40;;;;;;5097374;28;20052;-71
2022/07/19 06:48:23;;;;;;;12.70;6.25;;;23.90;79.30;;;;;;5091960;28;20028;-69
2022/07/19 06:50:48;;;;;;;11.43;6.20;;;23.90;79.20;;;;;;5096423;28;20504;-71
2022/07/19 06:53:14;;;;;;;12.77;6.30;;;24.00;79.10;;;;;;5093882;28;20016;-71
2022/07/19 06:55:43;;;;;;;11.20;6.63;;;24.00;79.00;;;;;;5092983;28;20028;-70
2022/07/19 06:58:09;;;;;;;15.02;6.15;;;24.10;79.10;;;;;;5083266;28;20384;-70
2022/07/19 07:00:34;;;;;;;13.95;6.15;;;24.10;79.20;;;;;;5097103;28;20039;-70
2022/07/19 07:03:00;;;;;;;9.88;5.95;;;24.20;79.00;;;;;;5092161;28;20119;-70
2022/07/19 07:05:26;;;;;;;12.40;6.53;;;24.20;78.60;;;;;;5092830;28;20100;-70
2022/07/19 07:07:54;;;;;;;11.65;5.50;;;24.30;78.60;;;;;;5092197;28;20032;-71
2022/07/19 07:10:20;;;;;;;11.02;6.32;;;24.30;78.50;;;;;;5092214;28;20109;-70
2022/07/19 07:12:46;;;;;;;27.20;6.43;;;24.40;78.60;;;;;;5098025;28;20078;-70
2022/07/19 07:15:12;;;;;;;17.75;6.03;;;24.40;78.50;;;;;;5092472;28;20471;-71
2022/07/19 07:17:39;;;;;;;10.25;5.30;;;24.40;78.50;;;;;;5095725;28;20031;-71
2022/07/19 07:20:06;;;;;;;10.80;5.50;;;24.50;78.70;;;;;;5094239;28;20062;-71
2022/07/19 07:22:33;;;;;;;11.60;5.82;;;24.60;78.70;;;;;;5097312;28;20487;-70
2022/07/19 07:24:59;;;;;;;9.77;5.32;;;24.60;78.90;;;;;;5093680;28;20020;-72
2022/07/19 07:27:25;;;;;;;12.10;5.28;;;24.60;78.70;;;;;;5096945;28;20080;-69
2022/07/19 07:29:51;;;;;;;8.60;4.82;;;24.70;79.00;;;;;;5092547;28;20455;-69
2022/07/19 07:32:20;;;;;;;8.73;5.32;;;24.70;78.30;;;;;;5095590;28;20073;-70
2022/07/19 07:34:51;;;;;;;10.82;5.30;;;24.90;78.70;;;;;;5093312;28;20077;-69
2022/07/19 07:37:17;;;;;;;7.53;4.38;;;24.90;77.80;;;;;;5093945;28;20109;-69
2022/07/19 07:39:42;;;;;;;9.40;4.72;;;25.00;77.60;;;;;;5095068;28;20460;-69
2022/07/19 07:42:11;;;;;;;10.00;4.88;;;25.00;77.60;;;;;;5094305;28;20023;-69
2022/07/19 07:44:37;;;;;;;9.65;5.05;;;25.10;77.50;;;;;;5103441;28;20024;-69
2022/07/19 07:47:03;;;;;;;12.02;4.38;;;25.10;77.50;;;;;;5099414;28;20519;-69
2022/07/19 07:49:30;;;;;;;10.57;4.07;;;25.20;77.60;;;;;;5103126;28;20032;-69
2022/07/19 07:51:56;;;;;;;10.18;4.70;;;25.20;77.60;;;;;;5093249;28;20032;-69
2022/07/19 07:54:21;;;;;;;11.48;4.28;;;25.30;77.30;;;;;;5104158;28;20093;-68
2022/07/19 07:56:47;;;;;;;9.68;4.20;;;25.40;76.80;;;;;;5098634;28;20032;-69
2022/07/19 07:59:13;;;;;;;15.40;3.72;;;25.40;76.70;;;;;;5111614;28;20103;-69
2022/07/19 08:01:44;;;;;;;12.05;4.35;;;25.40;76.40;;;;;;5110327;28;20089;-69
2022/07/19 08:04:10;;;;;;;7.95;3.92;;;25.50;76.40;;;;;;5092774;28;20395;-69
2022/07/19 08:06:36;;;;;;;8.23;4.00;;;25.60;76.30;;;;;;5106996;28;20479;-69
2022/07/19 08:09:02;;;;;;;21.10;4.15;;;25.60;76.00;;;;;;5112164;28;20031;-69
2022/07/19 08:11:28;;;;;;;7.72;3.90;;;25.70;75.80;;;;;;5112497;28;20124;-69
2022/07/19 08:13:56;;;;;;;11.48;4.00;;;25.70;75.80;;;;;;5102802;28;20045;-69
2022/07/19 08:16:22;;;;;;;8.10;3.72;;;25.80;76.10;;;;;;5105955;28;20197;-69
2022/07/19 08:18:47;;;;;;;13.77;4.40;;;25.90;76.30;;;;;;5093159;28;20024;-69
2022/07/19 08:21:13;;;;;;;5.22;2.92;;;25.90;75.90;;;;;;5104748;28;20473;-69
2022/07/19 08:23:41;;;;;;;11.32;3.90;;;25.90;75.60;;;;;;5103930;28;20111;-69
2022/07/19 08:26:07;;;;;;;8.40;3.45;;;26.00;75.00;;;;;;5112148;28;20487;-69
2022/07/19 08:28:33;;;;;;;6.20;3.63;;;26.10;75.10;;;;;;5100529;28;20038;-69
2022/07/19 08:30:59;;;;;;;5.95;3.22;;;26.10;74.50;;;;;;5105174;28;20028;-69
2022/07/19 08:33:24;;;;;;;6.65;4.03;;;26.20;75.00;;;;;;5093058;28;20377;-69
2022/07/19 08:35:50;;;;;;;6.55;3.47;;;26.20;74.40;;;;;;5097364;28;20020;-69
2022/07/19 08:38:16;;;;;;;4.95;3.15;;;26.30;73.50;;;;;;5111642;28;20040;-69
2022/07/19 08:40:42;;;;;;;8.95;3.58;;;26.40;73.20;;;;;;5098647;28;20080;-69
2022/07/19 08:43:09;;;;;;;10.45;3.00;;;26.40;72.70;;;;;;5100535;28;20028;-69
2022/07/19 08:45:37;;;;;;;9.65;3.28;;;26.50;73.50;;;;;;5097668;28;20056;-69
2022/07/19 08:48:05;;;;;;;8.20;3.10;;;26.50;73.40;;;;;;5099839;28;20063;-69
2022/07/19 08:50:33;;;;;;;8.50;3.10;;;26.60;73.50;;;;;;5112142;28;20076;-69
2022/07/19 08:52:59;;;;;;;7.63;3.30;;;26.60;73.10;;;;;;5111382;28;20028;-69
2022/07/19 08:55:26;;;;;;;11.88;3.10;;;26.70;72.90;;;;;;5092292;28;20028;-69
2022/07/19 08:58:01;;;;;;;6.45;2.92;;;26.70;72.60;;;;;;5105362;28;20058;-69
2022/07/19 09:00:32;;;;;;;5.63;2.92;;;26.70;73.90;;;;;;5110040;28;20080;-69
2022/07/19 09:02:59;;;;;;;14.23;3.88;;;26.90;72.90;;;;;;5093155;28;20383;-69
2022/07/19 09:05:27;;;;;;;17.00;3.40;;;26.90;72.70;;;;;;5092783;28;20028;-69
2022/07/19 09:08:09;;;;;;;5.78;2.65;;;27.00;73.10;;;;;;5101395;28;20101;-69
2022/07/19 09:10:40;;;;;;;15.45;3.00;;;27.10;73.50;;;;;;5103777;28;20032;-69
2022/07/19 09:13:13;;;;;;;4.63;2.47;;;27.10;72.30;;;;;;5099746;28;20360;-69
2022/07/19 09:15:54;;;;;;;9.68;3.30;;;27.10;71.30;;;;;;5110440;28;20470;-69
2022/07/19 09:18:31;;;;;;;6.22;2.33;;;27.20;70.70;;;;;;5109870;28;20036;-69
2022/07/19 09:21:02;;;;;;;7.07;3.15;;;27.20;70.50;;;;;;5094400;28;20038;-71
2022/07/19 09:23:28;;;;;;;9.85;2.50;;;27.20;70.30;;;;;;5104855;28;20453;-68
2022/07/19 09:25:59;;;;;;;9.70;2.65;;;27.30;70.40;;;;;;5104129;28;20028;-69
2022/07/19 09:28:29;;;;;;;16.70;2.40;;;27.40;71.70;;;;;;5107390;28;20036;-69
2022/07/19 09:30:57;;;;;;;4.53;2.10;;;27.40;70.70;;;;;;5108740;28;20028;-65
2022/07/19 09:33:25;;;;;;;9.38;2.70;;;27.60;70.60;;;;;;5108209;28;20081;-66
2022/07/19 09:35:53;;;;;;;6.50;2.88;;;27.60;69.70;;;;;;5106114;28;20020;-66
2022/07/19 09:38:43;;;;;;;8.90;2.60;;;27.70;69.20;;;;;;5104430;28;20036;-66
2022/07/19 09:41:12;;;;;;;5.85;2.40;;;27.80;69.30;;;;;;5103300;28;20020;-68
2022/07/19 09:43:58;;;;;;;5.35;2.53;;;27.80;68.90;;;;;;5096074;28;20414;-69
2022/07/19 09:46:28;;;;;;;6.03;2.40;;;27.90;68.90;;;;;;5098202;28;20078;-68
2022/07/19 09:48:54;;;;;;;6.60;2.63;;;28.00;68.70;;;;;;5098230;28;20028;-69
2022/07/19 09:51:21;;;;;;;4.45;2.35;;;28.10;69.00;;;;;;5098768;28;20039;-68
2022/07/19 09:53:48;;;;;;;8.65;2.70;;;28.20;67.90;;;;;;5100851;28;20521;-68
2022/07/19 09:56:15;;;;;;;9.38;2.70;;;28.20;67.60;;;;;;5097380;28;20032;-69
2022/07/19 09:58:44;;;;;;;7.30;2.10;;;28.30;67.60;;;;;;5101536;28;20027;-69
2022/07/19 10:01:11;;;;;;;9.55;2.25;;;28.30;67.70;;;;;;5104411;28;20023;-68
2022/07/19 10:03:38;;;;;;;4.78;1.60;;;28.30;67.90;;;;;;5101299;28;20028;-68
2022/07/19 10:06:03;;;;;;;12.35;2.70;;;28.40;67.70;;;;;;5103516;28;20067;-73
2022/07/19 10:08:30;;;;;;;7.35;2.60;;;28.30;66.90;;;;;;5104988;28;20067;-70
2022/07/19 10:10:55;;;;;;;6.85;1.98;;;28.30;67.30;;;;;;5107127;28;20019;-69
2022/07/19 10:13:21;;;;;;;8.07;2.30;;;28.40;67.10;;;;;;5104983;28;20522;-68
2022/07/19 10:15:49;;;;;;;8.82;2.28;;;28.40;68.40;;;;;;5100840;28;20315;-68
2022/07/19 10:18:20;;;;;;;11.10;2.00;;;28.50;68.00;;;;;;5097811;28;20055;-68
2022/07/19 10:20:49;;;;;;;8.98;2.50;;;28.60;67.80;;;;;;5094974;28;20038;-69
2022/07/19 10:23:15;;;;;;;11.52;2.63;;;28.70;66.40;;;;;;5097821;28;20206;-67
2022/07/19 10:25:46;;;;;;;7.13;2.10;;;28.70;65.90;;;;;;5095147;28;20046;-66
2022/07/19 10:28:36;;;;;;;6.72;2.30;;;28.70;65.70;;;;;;5097475;28;20115;-67
2022/07/19 10:31:22;;;;;;;9.18;2.10;;;28.90;66.50;;;;;;5101037;28;20032;-66
2022/07/19 10:34:00;;;;;;;2.50;1.33;;;28.90;64.80;;;;;;5096893;28;20093;-67
2022/07/19 10:36:55;;;;;;;14.90;2.25;;;28.90;65.70;;;;;;5095700;28;20448;-67
2022/07/19 10:39:35;;;;;;;8.35;1.95;;;29.00;64.30;;;;;;5096998;28;20529;-66
2022/07/19 10:42:13;;;;;;;16.15;2.42;;;29.10;65.50;;;;;;5098996;28;20024;-67
2022/07/19 10:44:57;;;;;;;4.97;1.92;;;29.10;64.40;;;;;;5094558;28;20024;-66
2022/07/19 10:47:45;;;;;;;6.25;1.80;;;29.20;64.70;;;;;;5095917;28;20039;-66
2022/07/19 10:50:34;;;;;;;6.95;2.00;;;29.40;65.80;;;;;;5087669;28;20035;-66
2022/07/19 10:52:59;;;;;;;30.55;3.15;;;29.40;65.40;;;;;;5095328;28;20503;-67
2022/07/19 10:55:29;;;;;;;11.85;2.17;;;29.50;65.10;;;;;;5094190;28;20028;-67
2022/07/19 10:58:10;;;;;;;5.60;1.98;;;29.50;65.00;;;;;;5096131;28;20024;-67
2022/07/19 11:00:44;;;;;;;14.35;2.20;;;29.60;65.20;;;;;;5112353;28;20036;-67
2022/07/19 11:03:22;;;;;;;5.40;2.05;;;29.60;65.20;;;;;;5109968;28;20597;-67
2022/07/19 11:05:53;;;;;;;9.48;2.17;;;29.70;65.20;;;;;;5094457;28;20480;-67
2022/07/19 11:08:31;;;;;;;4.05;1.92;;;29.70;65.40;;;;;;5096583;28;20035;-66
2022/07/19 11:11:05;;;;;;;3.20;1.35;;;29.80;65.10;;;;;;5098104;28;20032;-67
2022/07/19 11:13:32;;;;;;;6.10;2.50;;;29.80;66.20;;;;;;5106709;28;20082;-67
2022/07/19 11:15:58;;;;;;;4.05;2.05;;;29.90;65.40;;;;;;5099370;28;20023;-67
2022/07/19 11:18:28;;;;;;;4.47;1.90;;;29.90;66.00;;;;;;5106408;28;20476;-67
2022/07/19 11:20:58;;;;;;;6.10;2.38;;;29.90;65.50;;;;;;5101342;28;20041;-67
2022/07/19 11:23:24;;;;;;;8.05;2.00;;;30.00;63.10;;;;;;5103328;28;20062;-71
2022/07/19 11:25:51;;;;;;;5.55;1.98;;;30.10;64.90;;;;;;5103158;28;20447;-69
2022/07/19 11:28:24;;;;;;;6.80;1.98;;;30.10;63.40;;;;;;5100092;28;20028;-70
2022/07/19 11:30:51;;;;;;;7.53;2.25;;;30.30;64.70;;;;;;5104603;28;20096;-70
2022/07/19 11:33:21;;;;;;;7.85;2.13;;;30.30;64.20;;;;;;5094877;28;20085;-67
2022/07/19 11:35:57;;;;;;;10.85;2.30;;;30.30;62.40;;;;;;5097450;28;20085;-67
2022/07/19 11:38:23;;;;;;;6.05;1.92;;;30.40;63.50;;;;;;5111401;28;20126;-67
2022/07/19 11:40:49;;;;;;;3.38;2.10;;;30.40;63.60;;;;;;5097387;28;20526;-67
2022/07/19 11:43:18;;;;;;;10.88;2.10;;;30.50;63.60;;;;;;5099848;28;20031;-67
2022/07/19 11:45:48;;;;;;;8.00;1.77;;;30.60;63.40;;;;;;5108581;28;20402;-67
2022/07/19 11:48:29;;;;;;;9.57;2.10;;;30.70;62.00;;;;;;5111348;28;20039;-67
2022/07/19 11:51:09;;;;;;;7.07;1.75;;;30.70;62.20;;;;;;5102247;28;20012;-67
2022/07/19 11:53:38;;;;;;;2.85;1.50;;;30.70;61.50;;;;;;5106122;28;20043;-67
2022/07/19 11:56:05;;;;;;;6.82;1.40;;;30.80;63.20;;;;;;5092533;28;20032;-67
2022/07/19 11:58:32;;;;;;;9.35;1.63;;;30.80;64.60;;;;;;5107594;28;20119;-67
2022/07/19 12:01:05;;;;;;;11.13;2.00;;;30.80;63.30;;;;;;5099455;28;20408;-67
2022/07/19 12:03:31;;;;;;;6.65;1.80;;;30.80;62.70;;;;;;5103320;28;20024;-67
2022/07/19 12:06:05;;;;;;;7.22;1.77;;;30.80;63.10;;;;;;5103246;28;20482;-67
2022/07/19 12:08:42;;;;;;;3.83;1.58;;;30.80;62.20;;;;;;5112961;28;20110;-67
2022/07/19 12:11:24;;;;;;;9.20;1.92;;;30.90;61.60;;;;;;5113259;28;20042;-66
2022/07/19 12:13:54;;;;;;;33.80;2.60;;;31.00;61.50;;;;;;5102082;28;20114;-67
2022/07/19 12:16:21;;;;;;;11.73;2.03;;;31.10;63.10;;;;;;5110578;28;20467;-67
2022/07/19 12:18:55;;;;;;;11.15;1.67;;;31.20;62.80;;;;;;5105540;28;20538;-67
2022/07/19 12:21:40;;;;;;;12.68;2.05;;;31.30;62.00;;;;;;5100026;28;20079;-67
2022/07/19 12:24:15;;;;;;;2.97;1.70;;;31.30;59.70;;;;;;5100797;28;20028;-67
2022/07/19 12:26:44;;;;;;;22.35;2.53;;;31.40;60.20;;;;;;5104467;28;20058;-67
2022/07/19 12:29:27;;;;;;;7.28;1.73;;;31.50;60.60;;;;;;5093645;28;20024;-67
2022/07/19 12:31:57;;;;;;;;;;;31.60;59.20;;;;;;5107838;28;20023;-67
2022/07/19 12:34:23;;;;;;;8.65;1.90;;;31.60;62.10;;;;;;5088748;28;19912;-67
2022/07/19 12:36:50;;;;;;;19.55;2.33;;;31.70;60.90;;;;;;5107006;28;20032;-67
2022/07/19 12:39:21;;;;;;;2.92;1.67;;;31.80;61.60;;;;;;5111802;28;20023;-67
2022/07/19 12:41:59;;;;;;;6.75;1.67;;;31.90;61.40;;;;;;5101851;28;20043;-67
2022/07/19 12:44:25;;;;;;;3.08;1.58;;;31.80;61.30;;;;;;5104493;28;20383;-67
2022/07/19 12:46:51;;;;;;;3.53;1.70;;;31.90;60.30;;;;;;5092470;28;20044;-67
2022/07/19 12:49:17;;;;;;;2.35;1.45;;;32.00;59.60;;;;;;5092946;28;20020;-67